Time,TemperatureF,DewpointF,PressureIn,WindDirection,WindDirectionDegrees,WindSpeedMPH,WindSpeedGustMPH,Humidity,HourlyPrecipIn,Conditions,Clouds,dailyrainin,SoftwareType,DateUTC
2013-03-28 00:00:00,31.1,25.3,29.75,SE,135,0.0,-999.0,79,0.00,,,0.00,open2300,2013-03-27 23:00:00,
2013-03-28 00:06:00,31.1,25.3,29.74,SE,135,0.0,-999.0,79,0.00,,,0.00,open2300,2013-03-27 23:06:00,
2013-03-28 00:12:00,30.9,25.2,29.75,SE,135,0.0,-999.0,79,0.00,,,0.00,open2300,2013-03-27 23:12:00,
2013-03-28 00:18:00,30.7,25.0,29.75,SE,135,0.0,-999.0,79,0.00,,,0.00,open2300,2013-03-27 23:18:00,
2013-03-28 00:24:00,30.7,25.0,29.75,SE,135,0.0,-999.0,79,0.00,,,0.00,open2300,2013-03-27 23:24:00,
2013-03-28 00:30:00,30.7,25.0,29.75,SE,135,0.0,-999.0,79,0.00,,,0.00,open2300,2013-03-27 23:30:00,
2013-03-28 00:36:00,30.6,25.2,29.75,SE,135,0.0,-999.0,80,0.00,,,0.00,open2300,2013-03-27 23:36:00,
2013-03-28 00:42:00,30.6,25.2,29.75,SE,135,0.0,-999.0,80,0.00,,,0.00,open2300,2013-03-27 23:42:00,
2013-03-28 00:48:00,30.6,25.2,29.75,SE,135,0.0,-999.0,80,0.00,,,0.00,open2300,2013-03-27 23:48:00,
2013-03-28 00:54:00,30.6,25.2,29.75,SE,135,0.0,-999.0,80,0.00,,,0.00,open2300,2013-03-27 23:54:00,
2013-03-28 01:00:00,30.6,25.2,29.75,SE,135,0.0,-999.0,80,0.00,,,0.00,open2300,2013-03-28 00:00:00,
2013-03-28 01:06:00,30.6,25.5,29.75,SE,135,0.0,-999.0,81,0.00,,,0.00,open2300,2013-03-28 00:06:00,
2013-03-28 01:12:00,30.6,25.5,29.75,SE,135,0.0,-999.0,81,0.00,,,0.00,open2300,2013-03-28 00:12:00,
2013-03-28 01:18:00,30.7,25.7,29.75,SE,135,0.0,-999.0,81,0.00,,,0.00,open2300,2013-03-28 00:18:00,
2013-03-28 01:24:00,30.7,25.7,29.75,SE,135,0.0,-999.0,81,0.00,,,0.00,open2300,2013-03-28 00:24:00,
2013-03-28 01:30:00,30.7,25.7,29.75,SE,135,0.0,-999.0,81,0.00,,,0.00,open2300,2013-03-28 00:30:00,
2013-03-28 01:36:00,30.7,25.7,29.75,SE,135,0.0,-999.0,81,0.00,,,0.00,open2300,2013-03-28 00:36:00,
2013-03-28 01:42:00,30.7,25.7,29.75,SE,135,0.0,-999.0,81,0.00,,,0.00,open2300,2013-03-28 00:42:00,
2013-03-28 01:48:00,30.9,25.9,29.75,SE,135,0.0,-999.0,81,0.00,,,0.00,open2300,2013-03-28 00:48:00,
2013-03-28 01:54:00,31.1,26.1,29.75,SE,135,0.0,-999.0,81,0.00,,,0.00,open2300,2013-03-28 00:54:00,
2013-03-28 02:00:00,31.1,26.2,29.75,SE,135,0.0,-999.0,82,0.00,,,0.00,open2300,2013-03-28 01:00:00,
2013-03-28 02:06:00,31.3,26.4,29.75,SSE,157,0.0,-999.0,82,0.00,,,0.00,open2300,2013-03-28 01:06:00,
2013-03-28 02:12:00,31.3,26.4,29.76,SE,135,0.0,-999.0,82,0.00,,,0.00,open2300,2013-03-28 01:12:00,
2013-03-28 02:18:00,31.6,26.8,29.76,SE,135,0.0,-999.0,82,0.00,,,0.00,open2300,2013-03-28 01:18:00,
2013-03-28 02:24:00,31.6,26.8,29.76,SE,135,0.0,-999.0,82,0.00,,,0.00,open2300,2013-03-28 01:24:00,
2013-03-28 02:30:00,31.8,27.0,29.75,SE,135,0.0,-999.0,82,0.00,,,0.00,open2300,2013-03-28 01:30:00,
2013-03-28 02:36:00,31.8,27.0,29.75,SE,135,0.0,-999.0,82,0.00,,,0.00,open2300,2013-03-28 01:36:00,
2013-03-28 02:42:00,32.0,27.1,29.75,SE,135,0.0,-999.0,82,0.00,,,0.00,open2300,2013-03-28 01:42:00,
2013-03-28 02:48:00,32.2,27.3,29.75,SE,135,0.0,-999.0,82,0.00,,,0.00,open2300,2013-03-28 01:48:00,
2013-03-28 02:54:00,32.2,27.3,29.75,SE,135,0.0,-999.0,82,0.00,,,0.00,open2300,2013-03-28 01:54:00,
2013-03-28 03:00:00,32.4,27.5,29.75,SE,135,0.0,-999.0,82,0.00,,,0.00,open2300,2013-03-28 02:00:00,
2013-03-28 03:06:00,32.4,27.5,29.75,SE,135,0.0,-999.0,82,0.00,,,0.00,open2300,2013-03-28 02:06:00,
2013-03-28 03:12:00,32.5,27.7,29.75,SE,135,0.0,-999.0,82,0.00,,,0.00,open2300,2013-03-28 02:12:00,
2013-03-28 03:18:00,32.7,27.9,29.75,SE,135,0.0,-999.0,82,0.00,,,0.00,open2300,2013-03-28 02:18:00,
2013-03-28 03:24:00,32.7,27.9,29.75,SE,135,0.0,-999.0,82,0.00,,,0.00,open2300,2013-03-28 02:24:00,
2013-03-28 03:30:00,32.9,28.0,29.75,SE,135,0.0,-999.0,82,0.00,,,0.00,open2300,2013-03-28 02:30:00,
2013-03-28 03:36:00,32.9,28.0,29.75,SE,135,0.0,-999.0,82,0.00,,,0.00,open2300,2013-03-28 02:36:00,
2013-03-28 03:42:00,33.3,28.2,29.75,SE,135,0.0,-999.0,82,0.00,,,0.00,open2300,2013-03-28 02:42:00,
2013-03-28 03:48:00,33.4,28.4,29.75,SE,135,0.0,-999.0,82,0.00,,,0.00,open2300,2013-03-28 02:48:00,
2013-03-28 03:54:00,33.4,28.4,29.75,SE,135,0.0,-999.0,82,0.00,,,0.00,open2300,2013-03-28 02:54:00,
2013-03-28 04:00:00,33.6,28.6,29.75,SE,135,0.0,-999.0,82,0.00,,,0.00,open2300,2013-03-28 03:00:00,
2013-03-28 04:06:00,33.6,28.6,29.75,SE,135,0.0,-999.0,82,0.00,,,0.00,open2300,2013-03-28 03:06:00,
2013-03-28 04:12:00,33.8,28.8,29.75,ESE,112,0.0,-999.0,82,0.00,,,0.00,open2300,2013-03-28 03:12:00,
2013-03-28 04:18:00,34.0,28.9,29.75,ESE,112,0.0,-999.0,82,0.00,,,0.00,open2300,2013-03-28 03:18:00,
2013-03-28 04:24:00,34.0,28.9,29.75,ESE,112,0.0,-999.0,82,0.00,,,0.00,open2300,2013-03-28 03:24:00,
2013-03-28 04:30:00,34.0,28.9,29.75,ESE,112,0.0,-999.0,82,0.00,,,0.00,open2300,2013-03-28 03:30:00,
2013-03-28 04:36:00,34.2,29.5,29.75,SE,135,0.0,-999.0,83,0.00,,,0.00,open2300,2013-03-28 03:36:00,
2013-03-28 04:42:00,34.2,29.5,29.75,SE,135,0.0,-999.0,83,0.00,,,0.00,open2300,2013-03-28 03:42:00,
2013-03-28 04:48:00,34.3,29.7,29.75,SE,135,0.0,-999.0,83,0.00,,,0.00,open2300,2013-03-28 03:48:00,
2013-03-28 04:54:00,34.3,29.7,29.75,SE,135,0.0,-999.0,83,0.00,,,0.00,open2300,2013-03-28 03:54:00,
2013-03-28 05:03:00,34.3,29.7,29.75,SE,135,0.0,-999.0,83,0.00,,,0.00,open2300,2013-03-28 04:03:00,
2013-03-28 05:06:00,34.3,29.7,29.75,SE,135,0.0,-999.0,83,0.00,,,0.00,open2300,2013-03-28 04:06:00,
2013-03-28 05:12:00,34.3,29.7,29.75,SE,135,0.0,-999.0,83,0.00,,,0.00,open2300,2013-03-28 04:12:00,
2013-03-28 05:18:00,34.5,29.8,29.75,SE,135,0.0,-999.0,83,0.00,,,0.00,open2300,2013-03-28 04:18:00,
2013-03-28 05:24:00,34.7,30.0,29.75,SE,135,0.0,-999.0,83,0.00,,,0.00,open2300,2013-03-28 04:24:00,
2013-03-28 05:27:00,34.7,30.0,29.75,SE,135,0.0,-999.0,83,0.00,,,0.00,open2300,2013-03-28 04:27:00,
2013-03-28 05:33:00,34.9,29.8,29.75,SE,135,0.0,-999.0,82,0.00,,,0.00,open2300,2013-03-28 04:33:00,
2013-03-28 05:39:00,34.9,29.8,29.75,SE,135,0.0,-999.0,82,0.00,,,0.00,open2300,2013-03-28 04:39:00,
2013-03-28 05:45:00,34.9,29.8,29.75,SE,135,0.0,-999.0,82,0.00,,,0.00,open2300,2013-03-28 04:45:00,
2013-03-28 05:51:00,34.9,29.8,29.75,SE,135,0.0,-999.0,82,0.00,,,0.00,open2300,2013-03-28 04:51:00,
2013-03-28 05:57:00,35.2,30.2,29.75,SE,135,0.0,-999.0,82,0.00,,,0.00,open2300,2013-03-28 04:57:00,
2013-03-28 06:03:00,35.2,30.2,29.76,SE,135,0.0,-999.0,82,0.00,,,0.00,open2300,2013-03-28 05:03:00,
2013-03-28 06:09:00,35.2,30.2,29.75,SE,135,0.0,-999.0,82,0.00,,,0.00,open2300,2013-03-28 05:09:00,
2013-03-28 06:15:00,35.4,30.4,29.75,SE,135,0.0,-999.0,82,0.00,,,0.00,open2300,2013-03-28 05:15:00,
2013-03-28 06:21:00,35.4,30.4,29.76,SE,135,0.0,-999.0,82,0.00,,,0.00,open2300,2013-03-28 05:21:00,
2013-03-28 06:27:00,35.4,30.2,29.75,SE,135,0.0,-999.0,81,0.00,,,0.00,open2300,2013-03-28 05:27:00,
2013-03-28 06:33:00,35.4,30.2,29.76,SE,135,0.0,-999.0,81,0.00,,,0.00,open2300,2013-03-28 05:33:00,
2013-03-28 06:39:00,35.4,30.2,29.76,SE,135,0.0,-999.0,81,0.00,,,0.00,open2300,2013-03-28 05:39:00,
2013-03-28 06:45:00,35.8,30.6,29.76,SE,135,0.0,-999.0,81,0.00,,,0.00,open2300,2013-03-28 05:45:00,
2013-03-28 06:51:00,35.8,30.6,29.76,SE,135,0.0,-999.0,81,0.00,,,0.00,open2300,2013-03-28 05:51:00,
2013-03-28 06:57:00,36.1,30.9,29.77,SE,135,0.0,-999.0,81,0.00,,,0.00,open2300,2013-03-28 05:57:00,
2013-03-28 07:03:00,36.7,31.5,29.77,SE,135,0.0,-999.0,81,0.00,,,0.00,open2300,2013-03-28 06:03:00,
2013-03-28 07:09:00,36.9,31.6,29.78,SE,135,0.0,-999.0,81,0.00,,,0.00,open2300,2013-03-28 06:09:00,
2013-03-28 07:15:00,37.2,32.0,29.77,SE,135,0.0,-999.0,81,0.00,,,0.00,open2300,2013-03-28 06:15:00,
2013-03-28 07:21:00,37.4,32.2,29.77,ESE,112,0.0,-999.0,81,0.00,,,0.00,open2300,2013-03-28 06:21:00,
2013-03-28 07:27:00,38.1,32.9,29.78,ESE,112,0.0,-999.0,81,0.00,,,0.00,open2300,2013-03-28 06:27:00,
2013-03-28 07:33:00,38.5,33.3,29.78,ESE,112,0.0,-999.0,81,0.00,,,0.00,open2300,2013-03-28 06:33:00,
2013-03-28 07:39:00,39.0,33.8,29.78,ESE,112,0.0,-999.0,81,0.00,,,0.00,open2300,2013-03-28 06:39:00,
2013-03-28 07:45:00,39.6,34.2,29.78,SE,135,0.0,-999.0,81,0.00,,,0.00,open2300,2013-03-28 06:45:00,
2013-03-28 07:51:00,40.3,34.5,29.78,East,90,0.0,-999.0,80,0.00,,,0.00,open2300,2013-03-28 06:51:00,
2013-03-28 07:57:00,41.0,34.9,29.78,East,90,0.0,-999.0,79,0.00,,,0.00,open2300,2013-03-28 06:57:00,
2013-03-28 08:03:00,41.5,35.1,29.78,East,90,0.0,-999.0,78,0.00,,,0.00,open2300,2013-03-28 07:03:00,
2013-03-28 08:09:00,42.1,35.4,29.78,ENE,67,0.0,-999.0,77,0.00,,,0.00,open2300,2013-03-28 07:09:00,
2013-03-28 08:15:00,42.4,35.8,29.78,ENE,67,0.0,-999.0,77,0.00,,,0.00,open2300,2013-03-28 07:15:00,
2013-03-28 08:21:00,42.6,36.0,29.78,ENE,67,0.0,-999.0,77,0.00,,,0.00,open2300,2013-03-28 07:21:00,
2013-03-28 08:27:00,43.5,36.1,29.78,ENE,67,0.0,-999.0,75,0.00,,,0.00,open2300,2013-03-28 07:27:00,
2013-03-28 08:33:00,44.1,36.3,29.78,ENE,67,0.0,-999.0,74,0.00,,,0.00,open2300,2013-03-28 07:33:00,
2013-03-28 08:39:00,44.4,36.3,29.78,ENE,67,0.0,-999.0,73,0.00,,,0.00,open2300,2013-03-28 07:39:00,
2013-03-28 08:45:00,44.6,36.5,29.79,ENE,67,0.0,-999.0,73,0.00,,,0.00,open2300,2013-03-28 07:45:00,
2013-03-28 08:51:00,45.0,36.5,29.78,WNW,292,0.0,-999.0,72,0.00,,,0.00,open2300,2013-03-28 07:51:00,
2013-03-28 08:57:00,45.7,36.9,29.79,WNW,292,0.0,-999.0,71,0.00,,,0.00,open2300,2013-03-28 07:57:00,
2013-03-28 09:03:00,46.2,37.4,29.78,WNW,292,0.0,-999.0,71,0.00,,,0.00,open2300,2013-03-28 08:03:00,
2013-03-28 09:09:00,46.6,37.4,29.79,WNW,292,0.0,-999.0,70,0.00,,,0.00,open2300,2013-03-28 08:09:00,
2013-03-28 09:15:00,47.1,37.9,29.79,SE,135,0.0,-999.0,70,0.00,,,0.00,open2300,2013-03-28 08:15:00,
2013-03-28 09:21:00,48.2,37.8,29.79,SSE,157,0.0,-999.0,67,0.00,,,0.00,open2300,2013-03-28 08:21:00,
2013-03-28 09:27:00,49.1,37.8,29.79,SSE,157,0.0,-999.0,65,0.00,,,0.00,open2300,2013-03-28 08:27:00,
2013-03-28 09:33:00,49.6,37.9,29.79,SE,135,0.0,-999.0,64,0.00,,,0.00,open2300,2013-03-28 08:33:00,
2013-03-28 09:39:00,49.6,37.6,29.79,SSE,157,0.0,-999.0,63,0.00,,,0.00,open2300,2013-03-28 08:39:00,
2013-03-28 09:45:00,50.0,37.0,29.79,SE,135,1.1,-999.0,61,0.00,,,0.00,open2300,2013-03-28 08:45:00,
2013-03-28 09:51:00,50.2,37.2,29.80,SSE,157,0.0,-999.0,61,0.00,,,0.00,open2300,2013-03-28 08:51:00,
2013-03-28 09:57:00,50.4,37.0,29.80,SE,135,0.0,-999.0,60,0.00,,,0.00,open2300,2013-03-28 08:57:00,
2013-03-28 10:03:00,50.5,37.2,29.79,WSW,247,0.0,-999.0,60,0.00,,,0.00,open2300,2013-03-28 09:03:00,
2013-03-28 10:09:00,50.5,37.2,29.79,SSE,157,0.0,-999.0,60,0.00,,,0.00,open2300,2013-03-28 09:09:00,
2013-03-28 10:15:00,50.7,36.9,29.80,SSE,157,0.0,-999.0,59,0.00,,,0.00,open2300,2013-03-28 09:15:00,
2013-03-28 10:21:00,51.1,37.2,29.80,SE,135,0.0,-999.0,59,0.00,,,0.00,open2300,2013-03-28 09:21:00,
2013-03-28 10:27:00,51.3,36.9,29.80,SE,135,0.0,-999.0,58,0.00,,,0.00,open2300,2013-03-28 09:27:00,
2013-03-28 10:33:00,51.1,36.3,29.80,SW,225,0.0,-999.0,57,0.00,,,0.00,open2300,2013-03-28 09:33:00,
2013-03-28 10:39:00,50.9,36.5,29.80,SSE,157,0.0,-999.0,58,0.00,,,0.00,open2300,2013-03-28 09:39:00,
2013-03-28 10:45:00,50.7,36.5,29.80,ESE,112,0.0,-999.0,58,0.00,,,0.00,open2300,2013-03-28 09:45:00,
2013-03-28 10:51:00,50.5,36.3,29.81,SSE,157,0.0,-999.0,58,0.00,,,0.00,open2300,2013-03-28 09:51:00,
2013-03-28 10:57:00,50.0,36.1,29.81,SW,225,0.0,-999.0,59,0.00,,,0.00,open2300,2013-03-28 09:57:00,
2013-03-28 11:03:00,49.8,36.0,29.81,West,270,0.0,-999.0,59,0.00,,,0.00,open2300,2013-03-28 10:03:00,
2013-03-28 11:09:00,49.6,36.0,29.81,WSW,247,0.0,-999.0,59,0.00,,,0.00,open2300,2013-03-28 10:09:00,
2013-03-28 11:15:00,49.6,36.3,29.81,West,270,0.0,-999.0,60,0.00,,,0.00,open2300,2013-03-28 10:15:00,
2013-03-28 11:21:00,49.5,36.1,29.81,SW,225,2.2,-999.0,60,0.00,,,0.00,open2300,2013-03-28 10:21:00,
2013-03-28 11:27:00,49.3,36.0,29.81,SSE,157,0.0,-999.0,60,0.00,,,0.00,open2300,2013-03-28 10:27:00,
2013-03-28 11:33:00,49.5,36.1,29.81,WSW,247,0.0,-999.0,60,0.00,,,0.00,open2300,2013-03-28 10:33:00,
2013-03-28 11:39:00,49.6,36.3,29.81,WSW,247,0.0,-999.0,60,0.00,,,0.00,open2300,2013-03-28 10:39:00,
2013-03-28 11:45:00,49.6,36.3,29.81,WSW,247,1.6,-999.0,60,0.00,,,0.00,open2300,2013-03-28 10:45:00,
2013-03-28 11:51:00,49.6,36.3,29.81,ESE,112,0.0,-999.0,60,0.00,,,0.00,open2300,2013-03-28 10:51:00,
2013-03-28 11:57:00,49.5,36.1,29.81,WSW,247,0.0,-999.0,60,0.00,,,0.00,open2300,2013-03-28 10:57:00,
2013-03-28 12:03:00,49.1,35.8,29.81,West,270,0.0,-999.0,60,0.00,,,0.00,open2300,2013-03-28 11:03:00,
2013-03-28 12:09:00,48.9,36.1,29.81,WNW,292,0.0,-999.0,61,0.00,,,0.00,open2300,2013-03-28 11:09:00,
2013-03-28 12:15:00,48.9,36.1,29.81,West,270,0.0,-999.0,61,0.00,,,0.00,open2300,2013-03-28 11:15:00,
2013-03-28 12:21:00,48.7,36.0,29.81,West,270,0.0,-999.0,61,0.00,,,0.00,open2300,2013-03-28 11:21:00,
2013-03-28 12:27:00,48.4,36.0,29.81,WNW,292,0.0,-999.0,62,0.00,,,0.00,open2300,2013-03-28 11:27:00,
2013-03-28 12:33:00,48.4,36.3,29.81,West,270,0.0,-999.0,63,0.00,,,0.00,open2300,2013-03-28 11:33:00,
2013-03-28 12:39:00,48.2,36.1,29.81,West,270,0.0,-999.0,63,0.00,,,0.00,open2300,2013-03-28 11:39:00,
2013-03-28 12:45:00,48.2,36.1,29.80,WNW,292,0.0,-999.0,63,0.00,,,0.00,open2300,2013-03-28 11:45:00,
2013-03-28 12:51:00,48.0,36.0,29.80,West,270,0.0,-999.0,63,0.00,,,0.00,open2300,2013-03-28 11:51:00,
2013-03-28 12:57:00,48.2,36.1,29.80,WNW,292,0.0,-999.0,63,0.00,,,0.00,open2300,2013-03-28 11:57:00,
2013-03-28 13:03:00,48.0,36.0,29.80,WNW,292,0.0,-999.0,63,0.00,,,0.00,open2300,2013-03-28 12:03:00,
2013-03-28 13:09:00,48.0,36.0,29.80,North,0,0.0,-999.0,63,0.00,,,0.00,open2300,2013-03-28 12:09:00,
2013-03-28 13:15:00,48.0,36.0,29.80,North,0,0.0,-999.0,63,0.00,,,0.00,open2300,2013-03-28 12:15:00,
2013-03-28 13:21:00,48.0,36.3,29.80,North,0,0.0,-999.0,64,0.00,,,0.00,open2300,2013-03-28 12:21:00,
2013-03-28 13:27:00,48.0,36.3,29.79,WNW,292,0.0,-999.0,64,0.00,,,0.00,open2300,2013-03-28 12:27:00,
2013-03-28 13:33:00,48.0,36.3,29.79,NW,315,0.0,-999.0,64,0.00,,,0.00,open2300,2013-03-28 12:33:00,
2013-03-28 13:39:00,48.0,36.3,29.79,WNW,292,0.0,-999.0,64,0.00,,,0.00,open2300,2013-03-28 12:39:00,
2013-03-28 13:45:00,48.0,36.3,29.79,WNW,292,0.0,-999.0,64,0.00,,,0.00,open2300,2013-03-28 12:45:00,
2013-03-28 13:51:00,48.0,36.3,29.78,NNE,22,0.0,-999.0,64,0.00,,,0.00,open2300,2013-03-28 12:51:00,
2013-03-28 13:57:00,48.0,36.3,29.79,NW,315,0.0,-999.0,64,0.00,,,0.00,open2300,2013-03-28 12:57:00,
2013-03-28 14:03:00,48.0,36.3,29.78,NNW,337,0.0,-999.0,64,0.00,,,0.00,open2300,2013-03-28 13:03:00,
2013-03-28 14:09:00,48.0,36.3,29.78,NNW,337,0.0,-999.0,64,0.00,,,0.00,open2300,2013-03-28 13:09:00,
2013-03-28 14:15:00,48.0,36.3,29.78,NNW,337,0.0,-999.0,64,0.00,,,0.00,open2300,2013-03-28 13:15:00,
2013-03-28 14:21:00,48.0,36.3,29.78,NNW,337,0.0,-999.0,64,0.00,,,0.00,open2300,2013-03-28 13:21:00,
2013-03-28 14:27:00,48.0,36.3,29.77,NNW,337,0.0,-999.0,64,0.00,,,0.00,open2300,2013-03-28 13:27:00,
2013-03-28 14:33:00,48.6,36.9,29.77,NNW,337,0.0,-999.0,64,0.00,,,0.00,open2300,2013-03-28 13:33:00,
2013-03-28 14:39:00,48.6,36.9,29.77,NNW,337,0.0,-999.0,64,0.00,,,0.00,open2300,2013-03-28 13:39:00,
2013-03-28 14:45:00,48.7,37.0,29.77,NNW,337,0.0,-999.0,64,0.00,,,0.00,open2300,2013-03-28 13:45:00,
2013-03-28 14:51:00,48.7,37.0,29.77,NNW,337,0.0,-999.0,64,0.00,,,0.00,open2300,2013-03-28 13:51:00,
2013-03-28 14:57:00,49.1,37.4,29.77,SE,135,0.0,-999.0,64,0.00,,,0.00,open2300,2013-03-28 13:57:00,
2013-03-28 15:03:00,49.1,37.4,29.77,SE,135,0.0,-999.0,64,0.00,,,0.00,open2300,2013-03-28 14:03:00,
2013-03-28 15:09:00,49.1,37.4,29.77,SE,135,0.0,-999.0,64,0.00,,,0.00,open2300,2013-03-28 14:09:00,
2013-03-28 15:15:00,49.3,37.6,29.77,SSE,157,0.0,-999.0,64,0.00,,,0.00,open2300,2013-03-28 14:15:00,
2013-03-28 15:21:00,49.3,37.6,29.77,ESE,112,0.0,-999.0,64,0.00,,,0.00,open2300,2013-03-28 14:21:00,
2013-03-28 15:27:00,49.1,37.4,29.77,East,90,0.0,-999.0,64,0.00,,,0.00,open2300,2013-03-28 14:27:00,
2013-03-28 15:33:00,49.3,37.9,29.77,SE,135,0.0,-999.0,65,0.00,,,0.00,open2300,2013-03-28 14:33:00,
2013-03-28 15:39:00,49.3,37.9,29.77,ESE,112,0.0,-999.0,65,0.00,,,0.00,open2300,2013-03-28 14:39:00,
2013-03-28 15:45:00,49.3,37.9,29.77,ESE,112,0.0,-999.0,65,0.00,,,0.00,open2300,2013-03-28 14:45:00,
2013-03-28 15:51:00,49.3,37.9,29.76,SSE,157,0.0,-999.0,65,0.00,,,0.00,open2300,2013-03-28 14:51:00,
2013-03-28 15:57:00,49.3,37.9,29.75,SSE,157,4.9,-999.0,65,0.00,,,0.00,open2300,2013-03-28 14:57:00,
2013-03-28 16:03:00,49.3,37.9,29.76,NE,45,0.0,-999.0,65,0.00,,,0.00,open2300,2013-03-28 15:03:00,
2013-03-28 16:09:00,49.1,37.8,29.76,NE,45,0.0,-999.0,65,0.00,,,0.00,open2300,2013-03-28 15:09:00,
2013-03-28 16:15:00,49.1,37.8,29.76,East,90,0.0,-999.0,65,0.00,,,0.00,open2300,2013-03-28 15:15:00,
2013-03-28 16:21:00,49.3,37.9,29.76,East,90,0.0,-999.0,65,0.00,,,0.00,open2300,2013-03-28 15:21:00,
2013-03-28 16:27:00,49.3,37.6,29.75,NE,45,0.0,-999.0,64,0.00,,,0.00,open2300,2013-03-28 15:27:00,
2013-03-28 16:33:00,49.1,37.4,29.75,SSE,157,0.0,-999.0,64,0.00,,,0.00,open2300,2013-03-28 15:33:00,
2013-03-28 16:39:00,49.1,37.4,29.76,SE,135,0.0,-999.0,64,0.00,,,0.00,open2300,2013-03-28 15:39:00,
2013-03-28 16:45:00,49.1,37.4,29.75,ESE,112,0.0,-999.0,64,0.00,,,0.00,open2300,2013-03-28 15:45:00,
2013-03-28 16:51:00,49.1,37.4,29.75,NE,45,0.0,-999.0,64,0.00,,,0.00,open2300,2013-03-28 15:51:00,
2013-03-28 16:57:00,49.1,37.4,29.75,East,90,0.0,-999.0,64,0.00,,,0.00,open2300,2013-03-28 15:57:00,
2013-03-28 17:03:00,48.9,36.9,29.75,East,90,0.0,-999.0,63,0.00,,,0.00,open2300,2013-03-28 16:03:00,
2013-03-28 17:09:00,48.9,36.9,29.75,SE,135,0.0,-999.0,63,0.00,,,0.00,open2300,2013-03-28 16:09:00,
2013-03-28 17:15:00,48.9,36.9,29.75,SE,135,0.0,-999.0,63,0.00,,,0.00,open2300,2013-03-28 16:15:00,
2013-03-28 17:21:00,48.9,36.9,29.75,SE,135,0.0,-999.0,63,0.00,,,0.00,open2300,2013-03-28 16:21:00,
2013-03-28 17:27:00,48.7,37.0,29.75,East,90,0.0,-999.0,64,0.00,,,0.00,open2300,2013-03-28 16:27:00,
2013-03-28 17:33:00,48.7,37.0,29.75,ENE,67,0.0,-999.0,64,0.00,,,0.00,open2300,2013-03-28 16:33:00,
2013-03-28 17:39:00,48.7,37.0,29.74,ESE,112,0.0,-999.0,64,0.00,,,0.00,open2300,2013-03-28 16:39:00,
2013-03-28 17:45:00,48.7,37.0,29.75,ESE,112,0.0,-999.0,64,0.00,,,0.00,open2300,2013-03-28 16:45:00,
2013-03-28 17:51:00,48.7,37.0,29.75,ESE,112,0.0,-999.0,64,0.00,,,0.00,open2300,2013-03-28 16:51:00,
2013-03-28 17:57:00,48.7,37.4,29.75,ENE,67,0.0,-999.0,65,0.00,,,0.00,open2300,2013-03-28 16:57:00,
2013-03-28 18:03:00,48.7,37.4,29.75,East,90,1.8,-999.0,65,0.00,,,0.00,open2300,2013-03-28 17:03:00,
2013-03-28 18:09:00,48.7,37.8,29.75,SSE,157,0.0,-999.0,66,0.00,,,0.00,open2300,2013-03-28 17:09:00,
2013-03-28 18:15:00,48.7,37.8,29.75,SE,135,0.0,-999.0,66,0.00,,,0.00,open2300,2013-03-28 17:15:00,
2013-03-28 18:21:00,48.7,38.3,29.75,SSE,157,0.0,-999.0,67,0.00,,,0.00,open2300,2013-03-28 17:21:00,
2013-03-28 18:27:00,48.7,38.3,29.74,SSE,157,0.0,-999.0,67,0.00,,,0.00,open2300,2013-03-28 17:27:00,
2013-03-28 18:33:00,48.7,38.3,29.73,SSE,157,0.0,-999.0,67,0.00,,,0.00,open2300,2013-03-28 17:33:00,
2013-03-28 18:39:00,48.7,38.3,29.73,ESE,112,2.7,-999.0,67,0.00,,,0.00,open2300,2013-03-28 17:39:00,
2013-03-28 18:45:00,48.7,38.3,29.73,ENE,67,0.0,-999.0,67,0.00,,,0.00,open2300,2013-03-28 17:45:00,
2013-03-28 18:51:00,48.7,38.3,29.74,NNE,22,0.0,-999.0,67,0.00,,,0.00,open2300,2013-03-28 17:51:00,
2013-03-28 18:57:00,48.7,38.3,29.73,ESE,112,0.0,-999.0,67,0.00,,,0.00,open2300,2013-03-28 17:57:00,
2013-03-28 19:03:00,48.7,38.3,29.73,SE,135,0.0,-999.0,67,0.00,,,0.00,open2300,2013-03-28 18:03:00,
2013-03-28 19:09:00,48.7,38.3,29.73,SE,135,0.0,-999.0,67,0.00,,,0.00,open2300,2013-03-28 18:09:00,
2013-03-28 19:15:00,48.7,38.3,29.73,ESE,112,0.0,-999.0,67,0.00,,,0.00,open2300,2013-03-28 18:15:00,
2013-03-28 19:21:00,48.6,38.5,29.73,SE,135,0.0,-999.0,68,0.00,,,0.00,open2300,2013-03-28 18:21:00,
2013-03-28 19:27:00,48.6,38.5,29.73,SE,135,0.0,-999.0,68,0.00,,,0.00,open2300,2013-03-28 18:27:00,
2013-03-28 19:33:00,48.7,38.7,29.73,SE,135,1.6,-999.0,68,0.00,,,0.00,open2300,2013-03-28 18:33:00,
2013-03-28 19:39:00,48.7,38.7,29.72,South,180,0.0,-999.0,68,0.00,,,0.00,open2300,2013-03-28 18:39:00,
2013-03-28 19:45:00,48.7,39.0,29.73,ESE,112,0.0,-999.0,69,0.00,,,0.00,open2300,2013-03-28 18:45:00,
2013-03-28 19:51:00,48.7,39.0,29.72,East,90,0.0,-999.0,69,0.00,,,0.00,open2300,2013-03-28 18:51:00,
2013-03-28 19:57:00,48.9,39.2,29.72,SSE,157,3.4,-999.0,69,0.00,,,0.00,open2300,2013-03-28 18:57:00,
2013-03-28 20:03:00,48.9,39.2,29.72,ESE,112,0.0,-999.0,69,0.00,,,0.00,open2300,2013-03-28 19:03:00,
2013-03-28 20:09:00,48.9,39.2,29.71,SE,135,0.0,-999.0,69,0.00,,,0.00,open2300,2013-03-28 19:09:00,
2013-03-28 20:15:00,49.1,39.7,29.71,SE,135,0.0,-999.0,70,0.00,,,0.00,open2300,2013-03-28 19:15:00,
2013-03-28 20:21:00,49.1,39.7,29.71,SE,135,0.0,-999.0,70,0.00,,,0.00,open2300,2013-03-28 19:21:00,
2013-03-28 20:27:00,49.1,39.7,29.71,SE,135,0.0,-999.0,70,0.00,,,0.00,open2300,2013-03-28 19:27:00,
2013-03-28 20:33:00,49.3,40.3,29.71,East,90,4.5,-999.0,71,0.00,,,0.00,open2300,2013-03-28 19:33:00,
2013-03-28 20:39:00,49.3,40.3,29.71,South,180,0.0,-999.0,71,0.00,,,0.00,open2300,2013-03-28 19:39:00,
2013-03-28 20:45:00,49.3,40.3,29.71,SE,135,0.0,-999.0,71,0.00,,,0.00,open2300,2013-03-28 19:45:00,
2013-03-28 20:51:00,49.6,40.6,29.70,South,180,3.8,-999.0,71,0.00,,,0.00,open2300,2013-03-28 19:51:00,
2013-03-28 20:57:00,49.6,41.0,29.70,SSE,157,2.9,-999.0,72,0.00,,,0.00,open2300,2013-03-28 19:57:00,
2013-03-28 21:03:00,49.8,41.2,29.70,ESE,112,2.7,-999.0,72,0.00,,,0.00,open2300,2013-03-28 20:03:00,
2013-03-28 21:09:00,49.8,41.2,29.70,East,90,10.5,-999.0,72,0.00,,,0.00,open2300,2013-03-28 20:09:00,
2013-03-28 21:15:00,49.8,41.5,29.69,SE,135,5.6,-999.0,73,0.00,,,0.00,open2300,2013-03-28 20:15:00,
2013-03-28 21:21:00,50.2,41.9,29.69,ESE,112,3.8,-999.0,73,0.00,,,0.00,open2300,2013-03-28 20:21:00,
2013-03-28 21:27:00,50.2,42.3,29.69,SSE,157,0.0,-999.0,74,0.00,,,0.00,open2300,2013-03-28 20:27:00,
2013-03-28 21:33:00,50.5,42.6,29.69,SSE,157,13.0,-999.0,74,0.00,,,0.00,open2300,2013-03-28 20:33:00,
2013-03-28 21:39:00,50.5,42.6,29.69,SSE,157,7.6,-999.0,74,0.00,,,0.00,open2300,2013-03-28 20:39:00,
2013-03-28 21:45:00,50.7,42.8,29.69,ESE,112,5.8,-999.0,74,0.00,,,0.00,open2300,2013-03-28 20:45:00,
2013-03-28 21:51:00,50.7,42.8,29.69,SSE,157,2.5,-999.0,74,0.00,,,0.00,open2300,2013-03-28 20:51:00,
2013-03-28 21:57:00,50.7,43.0,29.69,South,180,6.5,-999.0,75,0.00,,,0.00,open2300,2013-03-28 20:57:00,
2013-03-28 22:03:00,50.7,43.0,29.68,SSE,157,3.4,-999.0,75,0.00,,,0.00,open2300,2013-03-28 21:03:00,
2013-03-28 22:09:00,50.7,43.0,29.68,ENE,67,5.4,-999.0,75,0.00,,,0.00,open2300,2013-03-28 21:09:00,
2013-03-28 22:15:00,50.9,43.2,29.67,SSE,157,0.0,-999.0,75,0.00,,,0.00,open2300,2013-03-28 21:15:00,
2013-03-28 22:21:00,50.9,43.5,29.67,SSE,157,0.0,-999.0,76,0.00,,,0.00,open2300,2013-03-28 21:21:00,
2013-03-28 22:27:00,50.9,43.5,29.67,SE,135,4.9,-999.0,76,0.00,,,0.00,open2300,2013-03-28 21:27:00,
2013-03-28 22:33:00,51.1,44.1,29.67,ESE,112,2.7,-999.0,77,0.00,,,0.00,open2300,2013-03-28 21:33:00,
2013-03-28 22:39:00,50.9,43.9,29.67,SE,135,1.3,-999.0,77,0.00,,,0.00,open2300,2013-03-28 21:39:00,
2013-03-28 22:45:00,50.9,43.9,29.66,South,180,4.9,-999.0,77,0.00,,,0.00,open2300,2013-03-28 21:45:00,
2013-03-28 22:51:00,51.1,44.1,29.66,East,90,2.2,-999.0,77,0.00,,,0.00,open2300,2013-03-28 21:51:00,
2013-03-28 22:57:00,51.1,44.4,29.66,SE,135,5.1,-999.0,78,0.00,,,0.00,open2300,2013-03-28 21:57:00,
2013-03-28 23:03:00,51.1,44.4,29.66,SSE,157,0.0,-999.0,78,0.00,,,0.00,open2300,2013-03-28 22:03:00,
2013-03-28 23:09:00,51.1,44.8,29.66,SSE,157,3.8,-999.0,79,0.00,,,0.00,open2300,2013-03-28 22:09:00,
2013-03-28 23:15:00,51.3,45.0,29.65,SE,135,2.2,-999.0,79,0.00,,,0.00,open2300,2013-03-28 22:15:00,
2013-03-28 23:21:00,51.4,45.5,29.66,SE,135,3.4,-999.0,80,0.00,,,0.00,open2300,2013-03-28 22:21:00,
2013-03-28 23:27:00,51.6,45.7,29.66,SSE,157,2.0,-999.0,80,0.00,,,0.00,open2300,2013-03-28 22:27:00,
2013-03-28 23:33:00,51.6,46.0,29.65,SSE,157,4.0,-999.0,81,0.00,,,0.00,open2300,2013-03-28 22:33:00,
2013-03-28 23:39:00,51.6,46.0,29.65,SE,135,5.8,-999.0,81,0.00,,,0.00,open2300,2013-03-28 22:39:00,
2013-03-28 23:45:00,51.6,46.0,29.65,ESE,112,4.5,-999.0,81,0.00,,,0.00,open2300,2013-03-28 22:45:00,
2013-03-28 23:51:00,51.8,46.4,29.65,SE,135,2.7,-999.0,82,0.00,,,0.00,open2300,2013-03-28 22:51:00,
2013-03-28 23:57:00,52.0,46.6,29.65,SE,135,13.0,-999.0,82,0.00,,,0.00,open2300,2013-03-28 22:57:00,